0OH9 weather

CLOSED Parknavy Airport
Plain City, Ohio, United States

Public forecast

Using degrees Fahrenheit for public forecast. Weather courtesy of forecast.io.

Closest aviation weather report (METAR) to Parknavy Airport

Closest report is The Ohio State University Airport - Don Scott Field, 7.2 nm (13.4 km) E. Retrieved 2020/06/04 12:53 UTC (33 minutes ago):

KOSU 041253Z 15004KT 8SM FEW007 FEW065 22/20 A2987 RMK AO2 SLP106 T02170200

Closest aviation forecast (TAF) to Parknavy Airport

Closest forecast is John Glenn Columbus International Airport, 16.2 nm (29.9 km) ESE. Retrieved 2020/06/04 12:24 UTC (1 hour ago):

TAF KCMH 041121Z 0412/0512 18006KT P6SM SCT050 BKN100 FM041800 20008KT P6SM VCTS SCT050CB BKN100 FM042100 20008KT P6SM -SHRA SCT050 BKN120 FM050300 20004KT P6SM BKN120